PWSweather.com
Personal Weather Stations
Station Observations
KCTCOLEB1
Sandy Brook, Colebrook, CT 06021

Sandy BrookColebrook, CT 06021

Lat: 42.0018, Lon: -73.0825

Elevation: 935

Station Type: Davis Vantage Pro2 + Solar + UV

High Low Average
Temperature 53.7°F12.1°C 42.9°F6.1°C 46.0°F7.8°C
Dew Point 52.9°F11.6°C 41.6°F5.3°C 44.4°F6.9°C
Winds 4.6 mph 7.4 kmh 1.2 mph 1.9 kmh 3.0 mph ESE4.8 kmh ESE
Wind Gusts 11.5 mph18.5 kmh 2.3 mph3.7 kmh 5.0 mph8.0 kmh
Humidity 97% 86% 94%
Pressure 29.52 in999.7 mb 29.00 in982.1 mb -
Precipitation 0.00 in0.0 mm - -
Hour Temp Dew Point Humidity Winds Wind Gusts Pressure Precip Precip Rate Daily Precip Total
12:00 AM 52.4°F11.3°C 51.5°F10.8°C 97% 3.5 mph SW5.6 kmh SW 3.5 mph5.6 kmh 29.11 in985.8 mb - 0.00 in0.0 mm 0.00 in0.0 mm
12:10 AM 52.7°F11.5°C 51.9°F11.1°C 97% 2.3 mph WNW3.7 kmh WNW 3.5 mph5.6 kmh 29.09 in985.1 mb - 0.00 in0.0 mm 0.00 in0.0 mm
12:20 AM 53.0°F11.7°C 52.2°F11.2°C 97% 3.5 mph ESE5.6 kmh ESE 3.5 mph5.6 kmh 29.09 in985.1 mb - 0.00 in0.0 mm 0.00 in0.0 mm
12:30 AM 53.2°F11.8°C 52.4°F11.3°C 97% 4.6 mph W7.4 kmh W 5.8 mph9.3 kmh 29.08 in984.8 mb - 0.00 in0.0 mm 0.00 in0.0 mm
12:40 AM 53.5°F11.9°C 53.0°F11.7°C 98% 2.3 mph SW3.7 kmh SW 3.5 mph5.6 kmh 29.07 in984.4 mb - 0.00 in0.0 mm 0.00 in0.0 mm
12:50 AM 53.7°F12.1°C 52.9°F11.6°C 97% Calm Calm 1.2 mph1.9 kmh 29.06 in984.1 mb - 0.00 in0.0 mm 0.00 in0.0 mm
01:00 AM 53.7°F12.1°C 52.9°F11.6°C 97% 2.3 mph WNW3.7 kmh WNW 2.3 mph3.7 kmh 29.05 in983.7 mb - 0.00 in0.0 mm 0.00 in0.0 mm
01:10 AM 53.6°F12.0°C 52.8°F11.6°C 97% 2.3 mph NE3.7 kmh NE 3.5 mph5.6 kmh 29.05 in983.7 mb - 0.00 in0.0 mm 0.00 in0.0 mm
01:20 AM 53.5°F11.9°C 52.7°F11.5°C 97% 1.2 mph NE1.9 kmh NE 3.5 mph5.6 kmh 29.06 in984.1 mb - 0.00 in0.0 mm 0.00 in0.0 mm
01:30 AM 53.2°F11.8°C 52.4°F11.3°C 97% 2.3 mph N3.7 kmh N 3.5 mph5.6 kmh 29.07 in984.4 mb - 0.00 in0.0 mm 0.00 in0.0 mm
01:40 AM 52.6°F11.4°C 51.8°F11.0°C 97% 1.2 mph NW1.9 kmh NW 2.3 mph3.7 kmh 29.06 in984.1 mb - 0.00 in0.0 mm 0.00 in0.0 mm
01:50 AM 51.5°F10.8°C 50.4°F10.2°C 96% 2.3 mph N3.7 kmh N 2.3 mph3.7 kmh 29.06 in984.1 mb - 0.00 in0.0 mm 0.00 in0.0 mm
02:00 AM 50.7°F10.4°C 49.6°F9.8°C 96% 3.5 mph N5.6 kmh N 3.5 mph5.6 kmh 29.05 in983.7 mb - 0.00 in0.0 mm 0.00 in0.0 mm
02:10 AM 50.0°F10.0°C 48.9°F9.4°C 96% 1.2 mph ENE1.9 kmh ENE 4.6 mph7.4 kmh 29.07 in984.4 mb - 0.00 in0.0 mm 0.00 in0.0 mm
02:20 AM 49.4°F9.7°C 48.3°F9.1°C 96% 3.5 mph N5.6 kmh N 5.8 mph9.3 kmh 29.07 in984.4 mb - 0.00 in0.0 mm 0.00 in0.0 mm
02:30 AM 48.2°F9.0°C 46.8°F8.2°C 95% 3.5 mph N5.6 kmh N 8.1 mph13.0 kmh 29.05 in983.7 mb - 0.00 in0.0 mm 0.00 in0.0 mm
02:40 AM 47.0°F8.3°C 45.3°F7.4°C 94% 4.6 mph NE7.4 kmh NE 9.2 mph14.8 kmh 29.05 in983.7 mb - 0.00 in0.0 mm 0.00 in0.0 mm
02:50 AM 46.3°F7.9°C 44.9°F7.2°C 95% 3.5 mph NNW5.6 kmh NNW 8.1 mph13.0 kmh 29.04 in983.4 mb - 0.00 in0.0 mm 0.00 in0.0 mm
03:00 AM 45.9°F7.7°C 44.9°F7.2°C 96% 2.3 mph N3.7 kmh N 4.6 mph7.4 kmh 29.04 in983.4 mb - 0.00 in0.0 mm 0.00 in0.0 mm
03:10 AM 45.8°F7.7°C 44.7°F7.1°C 96% 3.5 mph N5.6 kmh N 4.6 mph7.4 kmh 29.05 in983.7 mb - 0.00 in0.0 mm 0.00 in0.0 mm
03:20 AM 45.6°F7.6°C 44.5°F6.9°C 96% 3.5 mph N5.6 kmh N 6.9 mph11.1 kmh 29.02 in982.7 mb - 0.00 in0.0 mm 0.00 in0.0 mm
03:30 AM 45.3°F7.4°C 44.3°F6.8°C 96% 2.3 mph N3.7 kmh N 8.1 mph13.0 kmh 29.02 in982.7 mb - 0.00 in0.0 mm 0.00 in0.0 mm
03:40 AM 45.3°F7.4°C 44.2°F6.8°C 96% 4.6 mph N7.4 kmh N 5.8 mph9.3 kmh 29.00 in982.1 mb - 0.00 in0.0 mm 0.00 in0.0 mm
03:50 AM 45.2°F7.3°C 44.1°F6.7°C 96% 2.3 mph N3.7 kmh N 3.5 mph5.6 kmh 29.02 in982.7 mb - 0.00 in0.0 mm 0.00 in0.0 mm
04:00 AM 45.2°F7.3°C 44.1°F6.7°C 96% 2.3 mph NNE3.7 kmh NNE 3.5 mph5.6 kmh 29.03 in983.1 mb - 0.00 in0.0 mm 0.00 in0.0 mm
04:10 AM 45.1°F7.3°C 44.0°F6.7°C 96% 2.3 mph NNW3.7 kmh NNW 3.5 mph5.6 kmh 29.03 in983.1 mb - 0.00 in0.0 mm 0.00 in0.0 mm
04:20 AM 45.0°F7.2°C 43.9°F6.6°C 96% 2.3 mph N3.7 kmh N 3.5 mph5.6 kmh 29.04 in983.4 mb - 0.00 in0.0 mm 0.00 in0.0 mm
04:30 AM 44.8°F7.1°C 43.7°F6.5°C 96% 3.5 mph N5.6 kmh N 4.6 mph7.4 kmh 29.04 in983.4 mb - 0.00 in0.0 mm 0.00 in0.0 mm
04:40 AM 44.6°F7.0°C 43.5°F6.4°C 96% 4.6 mph N7.4 kmh N 8.1 mph13.0 kmh 29.05 in983.7 mb - 0.00 in0.0 mm 0.00 in0.0 mm
04:50 AM 44.5°F6.9°C 43.4°F6.3°C 96% 3.5 mph N5.6 kmh N 8.1 mph13.0 kmh 29.04 in983.4 mb - 0.00 in0.0 mm 0.00 in0.0 mm
05:00 AM 44.3°F6.8°C 43.2°F6.2°C 96% 3.5 mph ENE5.6 kmh ENE 3.5 mph5.6 kmh 29.05 in983.7 mb - 0.00 in0.0 mm 0.00 in0.0 mm
05:10 AM 44.2°F6.8°C 43.1°F6.2°C 96% 4.6 mph NNE7.4 kmh NNE 9.2 mph14.8 kmh 29.05 in983.7 mb - 0.00 in0.0 mm 0.00 in0.0 mm
05:20 AM 44.1°F6.7°C 43.0°F6.1°C 96% 3.5 mph NE5.6 kmh NE 11.5 mph18.5 kmh 29.05 in983.7 mb - 0.00 in0.0 mm 0.00 in0.0 mm
05:30 AM 44.1°F6.7°C 43.0°F6.1°C 96% 2.3 mph E3.7 kmh E 3.5 mph5.6 kmh 29.04 in983.4 mb - 0.00 in0.0 mm 0.00 in0.0 mm
05:40 AM 43.9°F6.6°C 42.8°F6.0°C 96% 3.5 mph N5.6 kmh N 11.5 mph18.5 kmh 29.05 in983.7 mb - 0.00 in0.0 mm 0.00 in0.0 mm
05:50 AM 43.6°F6.4°C 42.3°F5.7°C 95% 1.2 mph NE1.9 kmh NE 3.5 mph5.6 kmh 29.05 in983.7 mb - 0.00 in0.0 mm 0.00 in0.0 mm
06:00 AM 43.4°F6.3°C 42.3°F5.7°C 96% 2.3 mph N3.7 kmh N 4.6 mph7.4 kmh 29.05 in983.7 mb - 0.00 in0.0 mm 0.00 in0.0 mm
06:10 AM 43.2°F6.2°C 41.9°F5.5°C 95% 3.5 mph NE5.6 kmh NE 3.5 mph5.6 kmh 29.05 in983.7 mb - 0.00 in0.0 mm 0.00 in0.0 mm
06:20 AM 43.1°F6.2°C 41.8°F5.4°C 95% 3.5 mph N5.6 kmh N 3.5 mph5.6 kmh 29.05 in983.7 mb - 0.00 in0.0 mm 0.00 in0.0 mm
06:30 AM 43.0°F6.1°C 41.9°F5.5°C 96% 4.6 mph NNE7.4 kmh NNE 9.2 mph14.8 kmh 29.05 in983.7 mb - 0.00 in0.0 mm 0.00 in0.0 mm
06:40 AM 42.9°F6.1°C 41.6°F5.3°C 95% 3.5 mph NE5.6 kmh NE 8.1 mph13.0 kmh 29.06 in984.1 mb - 0.00 in0.0 mm 0.00 in0.0 mm
06:50 AM 42.9°F6.1°C 41.8°F5.4°C 96% 2.3 mph NNE3.7 kmh NNE 4.6 mph7.4 kmh 29.06 in984.1 mb - 0.00 in0.0 mm 0.00 in0.0 mm
07:00 AM 42.9°F6.1°C 41.8°F5.4°C 96% 1.2 mph NE1.9 kmh NE 3.5 mph5.6 kmh 29.07 in984.4 mb - 0.00 in0.0 mm 0.00 in0.0 mm
07:10 AM 42.9°F6.1°C 41.8°F5.4°C 96% 3.5 mph NE5.6 kmh NE 11.5 mph18.5 kmh 29.08 in984.8 mb - 0.00 in0.0 mm 0.00 in0.0 mm
07:20 AM 42.9°F6.1°C 41.8°F5.4°C 96% 3.5 mph NNE5.6 kmh NNE 4.6 mph7.4 kmh 29.08 in984.8 mb - 0.00 in0.0 mm 0.00 in0.0 mm
07:30 AM 42.9°F6.1°C 41.9°F5.5°C 96% 2.3 mph N3.7 kmh N 3.5 mph5.6 kmh 29.08 in984.8 mb - 0.00 in0.0 mm 0.00 in0.0 mm
07:40 AM 43.1°F6.2°C 42.0°F5.6°C 96% 2.3 mph NNE3.7 kmh NNE 3.5 mph5.6 kmh 29.09 in985.1 mb - 0.00 in0.0 mm 0.00 in0.0 mm
07:50 AM 43.3°F6.3°C 42.2°F5.7°C 96% 3.5 mph N5.6 kmh N 5.8 mph9.3 kmh 29.09 in985.1 mb - 0.00 in0.0 mm 0.00 in0.0 mm
08:00 AM 43.4°F6.3°C 42.3°F5.7°C 96% 2.3 mph NE3.7 kmh NE 3.5 mph5.6 kmh 29.10 in985.4 mb - 0.00 in0.0 mm 0.00 in0.0 mm
08:10 AM 43.6°F6.4°C 42.5°F5.8°C 96% 2.3 mph NNE3.7 kmh NNE 3.5 mph5.6 kmh 29.10 in985.4 mb - 0.00 in0.0 mm 0.00 in0.0 mm
08:20 AM 43.8°F6.6°C 43.0°F6.1°C 97% 2.3 mph E3.7 kmh E 3.5 mph5.6 kmh 29.10 in985.4 mb - 0.00 in0.0 mm 0.00 in0.0 mm
08:30 AM 43.8°F6.6°C 43.0°F6.1°C 97% 2.3 mph NE3.7 kmh NE 4.6 mph7.4 kmh 29.10 in985.4 mb - 0.00 in0.0 mm 0.00 in0.0 mm
08:40 AM 44.0°F6.7°C 43.2°F6.2°C 97% 2.3 mph NNE3.7 kmh NNE 3.5 mph5.6 kmh 29.10 in985.4 mb - 0.00 in0.0 mm 0.00 in0.0 mm
08:50 AM 44.2°F6.8°C 43.4°F6.3°C 97% 2.3 mph N3.7 kmh N 2.3 mph3.7 kmh 29.11 in985.8 mb - 0.00 in0.0 mm 0.00 in0.0 mm
09:00 AM 44.3°F6.8°C 43.5°F6.4°C 97% 2.3 mph NE3.7 kmh NE 4.6 mph7.4 kmh 29.10 in985.4 mb - 0.00 in0.0 mm 0.00 in0.0 mm
09:10 AM 44.5°F6.9°C 43.7°F6.5°C 97% 2.3 mph ENE3.7 kmh ENE 3.5 mph5.6 kmh 29.10 in985.4 mb - 0.00 in0.0 mm 0.00 in0.0 mm
09:20 AM 44.6°F7.0°C 43.8°F6.6°C 97% 2.3 mph NNE3.7 kmh NNE 4.6 mph7.4 kmh 29.10 in985.4 mb - 0.00 in0.0 mm 0.00 in0.0 mm
09:30 AM 44.6°F7.0°C 43.8°F6.6°C 97% 2.3 mph NE3.7 kmh NE 3.5 mph5.6 kmh 29.09 in985.1 mb - 0.00 in0.0 mm 0.00 in0.0 mm
09:40 AM 44.6°F7.0°C 43.8°F6.6°C 97% 2.3 mph NNE3.7 kmh NNE 3.5 mph5.6 kmh 29.09 in985.1 mb - 0.00 in0.0 mm 0.00 in0.0 mm
09:50 AM 44.6°F7.0°C 43.8°F6.6°C 97% 1.2 mph N1.9 kmh N 3.5 mph5.6 kmh 29.09 in985.1 mb - 0.00 in0.0 mm 0.00 in0.0 mm
10:00 AM 44.7°F7.1°C 43.9°F6.6°C 97% 1.2 mph SE1.9 kmh SE 2.3 mph3.7 kmh 29.09 in985.1 mb - 0.00 in0.0 mm 0.00 in0.0 mm
10:10 AM 44.8°F7.1°C 44.0°F6.7°C 97% 1.2 mph N1.9 kmh N 2.3 mph3.7 kmh 29.09 in985.1 mb - 0.00 in0.0 mm 0.00 in0.0 mm
10:20 AM 44.9°F7.2°C 44.1°F6.7°C 97% 1.2 mph N1.9 kmh N 2.3 mph3.7 kmh 29.09 in985.1 mb - 0.00 in0.0 mm 0.00 in0.0 mm
10:30 AM 44.9°F7.2°C 44.1°F6.7°C 97% 1.2 mph NE1.9 kmh NE 2.3 mph3.7 kmh 29.09 in985.1 mb - 0.00 in0.0 mm 0.00 in0.0 mm
10:40 AM 45.0°F7.2°C 44.2°F6.8°C 97% 3.5 mph NNE5.6 kmh NNE 4.6 mph7.4 kmh 29.09 in985.1 mb - 0.00 in0.0 mm 0.00 in0.0 mm
10:50 AM 45.0°F7.2°C 44.2°F6.8°C 97% 2.3 mph NE3.7 kmh NE 3.5 mph5.6 kmh 29.09 in985.1 mb - 0.00 in0.0 mm 0.00 in0.0 mm
11:00 AM 44.9°F7.2°C 44.1°F6.7°C 97% 2.3 mph NE3.7 kmh NE 2.3 mph3.7 kmh 29.10 in985.4 mb - 0.00 in0.0 mm 0.00 in0.0 mm
11:10 AM 44.9°F7.2°C 44.1°F6.7°C 97% 1.2 mph W1.9 kmh W 3.5 mph5.6 kmh 29.10 in985.4 mb - 0.00 in0.0 mm 0.00 in0.0 mm
11:20 AM 44.9°F7.2°C 44.1°F6.7°C 97% 1.2 mph ENE1.9 kmh ENE 2.3 mph3.7 kmh 29.10 in985.4 mb - 0.00 in0.0 mm 0.00 in0.0 mm
11:30 AM 44.9°F7.2°C 44.1°F6.7°C 97% 2.3 mph NNE3.7 kmh NNE 3.5 mph5.6 kmh 29.10 in985.4 mb - 0.00 in0.0 mm 0.00 in0.0 mm
11:40 AM 45.0°F7.2°C 44.2°F6.8°C 97% 2.3 mph E3.7 kmh E 6.9 mph11.1 kmh 29.10 in985.4 mb - 0.00 in0.0 mm 0.00 in0.0 mm
11:50 AM 45.0°F7.2°C 44.2°F6.8°C 97% 1.2 mph NNE1.9 kmh NNE 3.5 mph5.6 kmh 29.10 in985.4 mb - 0.00 in0.0 mm 0.00 in0.0 mm
12:00 PM 45.1°F7.3°C 44.3°F6.8°C 97% 1.2 mph ENE1.9 kmh ENE 2.3 mph3.7 kmh 29.09 in985.1 mb - 0.00 in0.0 mm 0.00 in0.0 mm
12:10 PM 45.4°F7.4°C 44.6°F7.0°C 97% 1.2 mph NE1.9 kmh NE 2.3 mph3.7 kmh 29.09 in985.1 mb - 0.00 in0.0 mm 0.00 in0.0 mm
12:20 PM 45.5°F7.5°C 44.7°F7.1°C 97% 2.3 mph E3.7 kmh E 3.5 mph5.6 kmh 29.10 in985.4 mb - 0.00 in0.0 mm 0.00 in0.0 mm
12:30 PM 45.4°F7.4°C 44.6°F7.0°C 97% 1.2 mph NNE1.9 kmh NNE 3.5 mph5.6 kmh 29.11 in985.8 mb - 0.00 in0.0 mm 0.00 in0.0 mm
12:40 PM 45.5°F7.5°C 44.7°F7.1°C 97% 2.3 mph N3.7 kmh N 3.5 mph5.6 kmh 29.10 in985.4 mb - 0.00 in0.0 mm 0.00 in0.0 mm
05:30 PM 46.5°F8.1°C 45.4°F7.4°C 96% 2.3 mph NW3.7 kmh NW 3.5 mph5.6 kmh 29.26 in990.9 mb - 0.00 in0.0 mm 0.00 in0.0 mm
05:40 PM 46.5°F8.1°C 45.4°F7.4°C 96% 3.5 mph N5.6 kmh N 11.5 mph18.5 kmh 29.26 in990.9 mb - 0.00 in0.0 mm 0.00 in0.0 mm
05:50 PM 46.4°F8.0°C 45.0°F7.2°C 95% 3.5 mph NE5.6 kmh NE 3.5 mph5.6 kmh 29.26 in990.9 mb - 0.00 in0.0 mm 0.00 in0.0 mm
06:00 PM 46.4°F8.0°C 45.0°F7.2°C 95% 4.6 mph NNE7.4 kmh NNE 4.6 mph7.4 kmh 29.26 in990.9 mb - 0.00 in0.0 mm 0.00 in0.0 mm
06:10 PM 46.3°F7.9°C 44.9°F7.2°C 95% 2.3 mph N3.7 kmh N 3.5 mph5.6 kmh 29.27 in991.2 mb - 0.00 in0.0 mm 0.00 in0.0 mm
06:20 PM 46.3°F7.9°C 44.9°F7.2°C 95% 1.2 mph NNE1.9 kmh NNE 3.5 mph5.6 kmh 29.28 in991.5 mb - 0.00 in0.0 mm 0.00 in0.0 mm
06:30 PM 46.4°F8.0°C 45.0°F7.2°C 95% 4.6 mph 7.4 kmh 11.5 mph18.5 kmh 29.29 in991.9 mb - 0.00 in0.0 mm 0.00 in0.0 mm
06:40 PM 46.5°F8.1°C 44.9°F7.2°C 94% 2.3 mph NE3.7 kmh NE 5.8 mph9.3 kmh 29.30 in992.2 mb - 0.00 in0.0 mm 0.00 in0.0 mm
06:50 PM 46.6°F8.1°C 45.0°F7.2°C 94% 1.2 mph NNE1.9 kmh NNE 3.5 mph5.6 kmh 29.30 in992.2 mb - 0.00 in0.0 mm 0.00 in0.0 mm
07:00 PM 46.7°F8.2°C 44.8°F7.1°C 93% 1.2 mph N1.9 kmh N 2.3 mph3.7 kmh 29.31 in992.6 mb - 0.00 in0.0 mm 0.00 in0.0 mm
07:10 PM 46.7°F8.2°C 44.8°F7.1°C 93% 3.5 mph NE5.6 kmh NE 3.5 mph5.6 kmh 29.32 in992.9 mb - 0.00 in0.0 mm 0.00 in0.0 mm
07:20 PM 46.8°F8.2°C 44.6°F7.0°C 92% 3.5 mph NE5.6 kmh NE 5.8 mph9.3 kmh 29.32 in992.9 mb - 0.00 in0.0 mm 0.00 in0.0 mm
07:30 PM 46.8°F8.2°C 44.6°F7.0°C 92% 1.2 mph N1.9 kmh N 2.3 mph3.7 kmh 29.33 in993.2 mb - 0.00 in0.0 mm 0.00 in0.0 mm
07:40 PM 46.8°F8.2°C 44.6°F7.0°C 92% 1.2 mph N1.9 kmh N 3.5 mph5.6 kmh 29.34 in993.6 mb - 0.00 in0.0 mm 0.00 in0.0 mm
07:50 PM 46.8°F8.2°C 44.6°F7.0°C 92% 3.5 mph NNW5.6 kmh NNW 4.6 mph7.4 kmh 29.35 in993.9 mb - 0.00 in0.0 mm 0.00 in0.0 mm
08:00 PM 46.8°F8.2°C 44.3°F6.8°C 91% 2.3 mph NE3.7 kmh NE 3.5 mph5.6 kmh 29.35 in993.9 mb - 0.00 in0.0 mm 0.00 in0.0 mm
08:10 PM 46.7°F8.2°C 44.5°F6.9°C 92% 1.2 mph N1.9 kmh N 2.3 mph3.7 kmh 29.35 in993.9 mb - 0.00 in0.0 mm 0.00 in0.0 mm
08:20 PM 46.7°F8.2°C 44.2°F6.8°C 91% 2.3 mph N3.7 kmh N 3.5 mph5.6 kmh 29.36 in994.2 mb - 0.00 in0.0 mm 0.00 in0.0 mm
08:30 PM 46.7°F8.2°C 44.2°F6.8°C 91% 2.3 mph NE3.7 kmh NE 3.5 mph5.6 kmh 29.36 in994.2 mb - 0.00 in0.0 mm 0.00 in0.0 mm
08:40 PM 46.6°F8.1°C 44.4°F6.9°C 92% 1.2 mph NNE1.9 kmh NNE 2.3 mph3.7 kmh 29.37 in994.6 mb - 0.00 in0.0 mm 0.00 in0.0 mm
08:50 PM 46.6°F8.1°C 44.4°F6.9°C 92% 4.6 mph N7.4 kmh N 5.8 mph9.3 kmh 29.38 in994.9 mb - 0.00 in0.0 mm 0.00 in0.0 mm
09:00 PM 46.6°F8.1°C 44.1°F6.7°C 91% 3.5 mph N5.6 kmh N 8.1 mph13.0 kmh 29.38 in994.9 mb - 0.00 in0.0 mm 0.00 in0.0 mm
09:10 PM 46.7°F8.2°C 44.2°F6.8°C 91% 2.3 mph N3.7 kmh N 2.3 mph3.7 kmh 29.39 in995.3 mb - 0.00 in0.0 mm 0.00 in0.0 mm
09:20 PM 46.7°F8.2°C 44.2°F6.8°C 91% 2.3 mph N3.7 kmh N 3.5 mph5.6 kmh 29.39 in995.3 mb - 0.00 in0.0 mm 0.00 in0.0 mm
09:30 PM 46.8°F8.2°C 44.3°F6.8°C 91% 1.2 mph N1.9 kmh N 3.5 mph5.6 kmh 29.40 in995.6 mb - 0.00 in0.0 mm 0.00 in0.0 mm
09:40 PM 46.9°F8.3°C 44.4°F6.9°C 91% 3.5 mph NE5.6 kmh NE 9.2 mph14.8 kmh 29.40 in995.6 mb - 0.00 in0.0 mm 0.00 in0.0 mm
09:50 PM 47.0°F8.3°C 44.5°F6.9°C 91% 3.5 mph N5.6 kmh N 4.6 mph7.4 kmh 29.40 in995.6 mb - 0.00 in0.0 mm 0.00 in0.0 mm
10:00 PM 47.0°F8.3°C 44.5°F6.9°C 91% 2.3 mph NE3.7 kmh NE 3.5 mph5.6 kmh 29.40 in995.6 mb - 0.00 in0.0 mm 0.00 in0.0 mm
10:10 PM 47.0°F8.3°C 44.5°F6.9°C 91% 2.3 mph NE3.7 kmh NE 3.5 mph5.6 kmh 29.40 in995.6 mb - 0.00 in0.0 mm 0.00 in0.0 mm
10:20 PM 47.1°F8.4°C 44.6°F7.0°C 91% 3.5 mph NE5.6 kmh NE 8.1 mph13.0 kmh 29.40 in995.6 mb - 0.00 in0.0 mm 0.00 in0.0 mm
10:30 PM 47.0°F8.3°C 44.8°F7.1°C 92% 2.3 mph N3.7 kmh N 4.6 mph7.4 kmh 29.41 in995.9 mb - 0.00 in0.0 mm 0.00 in0.0 mm
10:40 PM 46.8°F8.2°C 44.6°F7.0°C 92% 1.2 mph ENE1.9 kmh ENE 3.5 mph5.6 kmh 29.42 in996.3 mb - 0.00 in0.0 mm 0.00 in0.0 mm
10:50 PM 46.7°F8.2°C 44.5°F6.9°C 92% 2.3 mph NNE3.7 kmh NNE 3.5 mph5.6 kmh 29.44 in997.0 mb - 0.00 in0.0 mm 0.00 in0.0 mm
11:00 PM 46.6°F8.1°C 44.4°F6.9°C 92% 2.3 mph N3.7 kmh N 4.6 mph7.4 kmh 29.45 in997.3 mb - 0.00 in0.0 mm 0.00 in0.0 mm
11:10 PM 46.6°F8.1°C 44.1°F6.7°C 91% 2.3 mph NNE3.7 kmh NNE 4.6 mph7.4 kmh 29.45 in997.3 mb - 0.00 in0.0 mm 0.00 in0.0 mm
11:20 PM 46.8°F8.2°C 44.0°F6.7°C 90% 2.3 mph NNE3.7 kmh NNE 3.5 mph5.6 kmh 29.45 in997.3 mb - 0.00 in0.0 mm 0.00 in0.0 mm
11:30 PM 46.9°F8.3°C 43.8°F6.6°C 89% 2.3 mph N3.7 kmh N 4.6 mph7.4 kmh 29.45 in997.3 mb - 0.00 in0.0 mm 0.00 in0.0 mm
11:40 PM 46.9°F8.3°C 43.5°F6.4°C 88% 3.5 mph N5.6 kmh N 10.4 mph16.7 kmh 29.46 in997.6 mb - 0.00 in0.0 mm 0.00 in0.0 mm
11:50 PM 46.9°F8.3°C 43.6°F6.4°C 88% 4.6 mph NNE7.4 kmh NNE 4.6 mph7.4 kmh 29.47 in998.0 mb - 0.00 in0.0 mm 0.00 in0.0 mm